Time;durP1;ratioP1;P1;durP2;ratioP2;P2;SDS_P1;SDS_P2;PMS_P1;PMS_P2;Temp;Humidity;BMP_temperature;BMP_pressure;BME280_temperature;BME280_humidity;BME280_pressure;Samples;Min_cycle;Max_cycle;Signal;HPM_P1;HPM_P2
2021/07/18 00:00:09;;;;;;;;;4.67;4.67;;;;;23.38;54.63;101772.94;5081267;27;45830;-51
2021/07/18 00:02:35;;;;;;;;;5.67;5.67;;;;;23.37;54.82;101771.16;5072243;27;45391;-49
2021/07/18 00:05:01;;;;;;;;;7.33;6.67;;;;;23.35;54.51;101768.56;5081101;27;45470;-49
2021/07/18 00:07:26;;;;;;;;;6.33;5.33;;;;;23.35;54.88;101770.38;5077430;27;45688;-46
2021/07/18 00:09:52;;;;;;;;;9.00;8.00;;;;;23.34;54.35;101768.66;5081151;27;45472;-47
2021/07/18 00:12:18;;;;;;;;;6.00;5.00;;;;;23.33;55.24;101769.63;5080579;27;47647;-50
2021/07/18 00:14:44;;;;;;;;;8.00;8.00;;;;;23.31;55.00;101763.41;5080700;27;45726;-50
2021/07/18 00:17:09;;;;;;;;;7.50;6.00;;;;;23.30;55.09;101765.25;5080509;27;45533;-51
2021/07/18 00:19:35;;;;;;;;;6.33;5.33;;;;;23.29;54.96;101768.94;5062717;28;45569;-48
2021/07/18 00:22:00;;;;;;;;;5.67;5.67;;;;;23.27;55.03;101767.28;5080210;27;46112;-50
2021/07/18 00:24:26;;;;;;;;;7.33;5.33;;;;;23.25;55.29;101769.16;5080228;27;45918;-49
2021/07/18 00:26:51;;;;;;;;;5.33;5.33;;;;;23.24;55.22;101770.13;5080211;27;45306;-52
2021/07/18 00:29:17;;;;;;;;;10.00;6.33;;;;;23.22;55.64;101766.66;5080767;27;45282;-50
2021/07/18 00:31:42;;;;;;;;;4.33;4.33;;;;;23.20;55.16;101769.44;5062146;28;45369;-48
2021/07/18 00:34:08;;;;;;;;;5.33;5.33;;;;;23.18;55.33;101776.78;5080470;27;45621;-51
2021/07/18 00:36:33;;;;;;;;;7.33;7.00;;;;;23.17;55.60;101775.06;5080520;27;45551;-50
2021/07/18 00:38:59;;;;;;;;;9.33;6.67;;;;;23.14;55.51;101770.69;5060011;28;45348;-47
2021/07/18 00:41:24;;;;;;;;;8.00;7.33;;;;;23.13;55.58;101768.94;5081168;27;48078;-48
2021/07/18 00:43:50;;;;;;;;;6.00;5.67;;;;;23.11;55.95;101765.44;5080653;27;45473;-48
2021/07/18 00:46:15;;;;;;;;;7.00;6.00;;;;;23.07;55.60;101763.00;5076027;27;45539;-50
2021/07/18 00:48:41;;;;;;;;;6.50;6.50;;;;;23.05;55.77;101759.50;5061414;27;45845;-50
2021/07/18 00:51:06;;;;;;;;;5.50;5.50;;;;;23.01;55.86;101761.53;5079646;27;48450;-50
2021/07/18 00:53:32;;;;;;;;;6.00;6.00;;;;;23.00;55.60;101765.19;5079691;27;45447;-50
2021/07/18 00:55:58;;;;;;;;;6.00;6.00;;;;;22.97;56.14;101765.34;5079770;27;45532;-49
2021/07/18 00:58:28;;;;;;;;;7.50;6.75;;;;;22.95;56.35;101763.69;5080109;27;45487;-50
2021/07/18 01:00:54;;;;;;;;;6.75;6.75;;;;;22.93;55.95;101765.63;5075630;27;45495;-49
2021/07/18 01:03:22;;;;;;;;;6.75;6.75;;;;;22.89;56.27;101760.41;5075764;27;45324;-47
2021/07/18 01:05:47;;;;;;;;;10.50;8.00;;;;;22.86;56.29;101754.25;5079947;27;45382;-50
2021/07/18 01:08:14;;;;;;;;;6.25;6.25;;;;;22.84;56.53;101762.47;5079727;27;45440;-48
2021/07/18 01:10:39;;;;;;;;;6.50;6.00;;;;;22.83;56.46;101759.84;5061333;28;48669;-50
2021/07/18 01:13:05;;;;;;;;;7.50;7.50;;;;;22.81;56.69;101768.03;5079192;27;45305;-48
2021/07/18 01:15:30;;;;;;;;;6.50;5.75;;;;;22.80;56.50;101768.13;5079510;27;45485;-50
2021/07/18 01:17:56;;;;;;;;;8.00;7.00;;;;;22.80;56.43;101768.13;5079852;27;45414;-48
2021/07/18 01:20:22;;;;;;;;;6.50;6.50;;;;;22.79;56.43;101769.06;5079037;27;47934;-47
2021/07/18 01:22:48;;;;;;;;;5.00;5.00;;;;;22.77;56.89;101774.56;5061050;28;45389;-50
2021/07/18 01:25:14;;;;;;;;;6.00;6.00;;;;;22.76;57.03;101770.13;5061256;28;45534;-49
2021/07/18 01:27:40;;;;;;;;;9.75;9.25;;;;;22.75;56.48;101770.22;5058003;28;45431;-52
2021/07/18 01:30:08;;;;;;;;;8.50;7.75;;;;;22.73;56.79;101769.41;5079126;28;45396;-51
2021/07/18 01:32:34;;;;;;;;;8.25;7.00;;;;;22.71;56.68;101765.91;5078868;27;45341;-51
2021/07/18 01:35:00;;;;;;;;;6.75;6.75;;;;;22.68;56.67;101772.38;5079786;27;45413;-51
2021/07/18 01:37:25;;;;;;;;;10.00;9.75;;;;;22.66;56.66;101762.59;5077097;27;45448;-50
2021/07/18 01:39:51;;;;;;;;;8.00;8.00;;;;;22.65;57.03;101759.03;5060834;28;48039;-52
2021/07/18 01:42:16;;;;;;;;;7.00;7.00;;;;;22.63;56.71;101762.78;5060652;27;45397;-50
2021/07/18 01:44:43;;;;;;;;;5.00;5.00;;;;;22.61;56.83;101758.34;5079704;27;45709;-48
2021/07/18 01:47:10;;;;;;;;;8.50;7.50;;;;;22.61;57.25;101761.03;5059597;28;45437;-50
2021/07/18 01:49:36;;;;;;;;;8.00;6.75;;;;;22.61;57.21;101758.34;5079190;27;48393;-48
2021/07/18 01:52:02;;;;;;;;;8.00;7.50;;;;;22.59;57.41;101757.50;5079134;27;45686;-52
2021/07/18 01:54:28;;;;;;;;;7.75;7.75;;;;;22.57;57.37;101751.31;5061149;28;45401;-51
2021/07/18 01:56:53;;;;;;;;;8.25;7.00;;;;;22.56;57.19;101752.28;5079133;27;45963;-48
2021/07/18 01:59:19;;;;;;;;;6.25;6.25;;;;;22.54;57.02;101745.22;5061482;28;47707;-52
2021/07/18 02:01:45;;;;;;;;;8.50;8.50;;;;;22.52;57.12;101750.72;5071213;27;46097;-49
2021/07/18 02:04:14;;;;;;;;;6.00;6.00;;;;;22.52;57.30;101747.13;5061169;28;45469;-52
2021/07/18 02:06:40;;;;;;;;;7.50;6.00;;;;;22.48;57.13;101746.41;5079193;27;45331;-51
2021/07/18 02:09:07;;;;;;;;;9.25;8.25;;;;;22.46;57.54;101744.75;5078514;27;48011;-47
2021/07/18 02:11:33;;;;;;;;;10.50;9.50;;;;;22.42;57.25;101744.06;5078664;27;45357;-47
2021/07/18 02:13:59;;;;;;;;;7.25;7.25;;;;;22.40;57.84;101745.97;5079235;27;45393;-47
2021/07/18 02:16:29;;;;;;;;;8.00;8.00;;;;;22.37;57.28;101743.44;5079049;28;45429;-50
2021/07/18 02:18:55;;;;;;;;;8.25;6.75;;;;;22.36;58.08;101746.22;5078401;28;47106;-49
2021/07/18 02:21:21;;;;;;;;;9.00;8.00;;;;;22.33;57.59;101749.97;5060291;27;45886;-46
2021/07/18 02:23:48;;;;;;;;;8.75;6.75;;;;;22.31;57.49;101747.34;5060615;28;45398;-49
2021/07/18 02:26:16;;;;;;;;;8.50;7.50;;;;;22.29;57.53;101745.69;5079016;27;45871;-51
2021/07/18 02:28:41;;;;;;;;;6.25;6.25;;;;;22.26;57.69;101748.56;5060627;28;47157;-50
2021/07/18 02:31:09;;;;;;;;;8.50;8.50;;;;;22.24;57.74;101740.53;5043662;28;45887;-52
2021/07/18 02:33:34;;;;;;;;;7.50;7.50;;;;;22.24;58.24;101743.25;5079079;27;45327;-49
2021/07/18 02:36:00;;;;;;;;;7.00;7.00;;;;;22.22;58.28;101744.25;5078966;27;45232;-51
2021/07/18 02:38:27;;;;;;;;;9.00;9.00;;;;;22.20;57.90;101740.78;5060714;28;48559;-49
2021/07/18 02:40:53;;;;;;;;;10.00;9.00;;;;;22.20;58.20;101735.38;5060878;27;46060;-48
2021/07/18 02:43:18;;;;;;;;;8.50;8.50;;;;;22.19;58.17;101741.72;5060567;28;45354;-52
2021/07/18 02:45:44;;;;;;;;;6.75;6.75;;;;;22.19;58.02;101733.63;5075262;27;45589;-48
2021/07/18 02:48:09;;;;;;;;;6.25;6.25;;;;;22.18;58.07;101737.28;5076317;28;46850;-49
2021/07/18 02:50:35;;;;;;;;;6.25;6.25;;;;;22.17;57.94;101746.34;5078286;28;45509;-51
2021/07/18 02:53:00;;;;;;;;;7.50;7.00;;;;;22.17;58.17;101740.94;5069658;27;45521;-51
2021/07/18 02:55:26;;;;;;;;;8.00;8.00;;;;;22.15;58.29;101734.75;5075993;28;45324;-50
2021/07/18 02:57:52;;;;;;;;;7.75;7.75;;;;;22.13;58.00;101733.97;5060578;28;47572;-48
2021/07/18 03:00:25;;;;;;;;;9.67;8.67;;;;;22.12;58.42;101738.50;5078186;27;46003;-52
2021/07/18 03:02:51;;;;;;;;;7.00;7.00;;;;;22.12;58.13;101738.50;5060633;28;45446;-47
2021/07/18 03:05:17;;;;;;;;;9.67;7.00;;;;;22.08;58.26;101736.88;5078246;27;45596;-49
2021/07/18 03:07:44;;;;;;;;;9.00;8.00;;;;;22.08;58.56;101741.44;5060558;28;46281;-52
2021/07/18 03:10:12;;;;;;;;;8.67;8.67;;;;;22.06;58.59;101737.94;5078041;27;45306;-50
2021/07/18 03:12:37;;;;;;;;;2.25;2.25;;;;;22.02;58.25;101732.66;5080673;27;45588;-49
2021/07/18 03:15:08;;;;;;;;;7.67;7.33;;;;;22.01;58.42;101733.63;5081504;27;45481;-49
2021/07/18 03:17:33;;;;;;;;;7.00;7.00;;;;;21.99;58.67;101734.66;5063461;27;47400;-50
2021/07/18 03:19:59;;;;;;;;;9.00;8.00;;;;;21.96;58.58;101732.97;5081665;27;45687;-49
2021/07/18 03:22:26;;;;;;;;;6.00;6.00;;;;;21.96;58.45;101729.41;5081699;27;45601;-48
2021/07/18 03:24:51;;;;;;;;;8.00;8.00;;;;;21.93;58.70;101725.03;5081200;27;45522;-48
2021/07/18 03:27:17;;;;;;;;;9.25;9.25;;;;;21.93;58.60;101734.97;5063728;27;46939;-50
2021/07/18 03:29:42;;;;;;;;;9.67;7.33;;;;;21.91;58.64;101728.78;5063468;27;45444;-51
2021/07/18 03:32:08;;;;;;;;;9.00;8.33;;;;;21.90;58.21;101729.75;5081781;27;45354;-49
2021/07/18 03:34:33;;;;;;;;;10.00;9.00;;;;;21.87;58.36;101725.38;5063520;28;45437;-50
2021/07/18 03:36:59;;;;;;;;;9.50;9.00;;;;;21.88;58.76;101740.63;5081005;27;47672;-49
2021/07/18 03:39:24;;;;;;;;;5.67;5.67;;;;;21.88;58.96;101729.81;5062414;27;45308;-49
2021/07/18 03:41:50;;;;;;;;;10.00;8.67;;;;;21.87;58.95;101730.78;5064688;28;45289;-50
2021/07/18 03:44:15;;;;;;;;;6.33;6.33;;;;;21.85;58.67;101731.78;5064367;27;45794;-47
2021/07/18 03:46:41;;;;;;;;;8.67;8.33;;;;;21.84;58.91;101728.22;5077374;27;47253;-50
2021/07/18 03:49:06;;;;;;;;;9.75;9.75;;;;;21.84;58.91;101741.72;5078736;27;45346;-51
2021/07/18 03:51:32;;;;;;;;;7.75;7.00;;;;;21.81;58.50;101733.78;5081335;27;45656;-50
2021/07/18 03:53:57;;;;;;;;;8.00;8.00;;;;;21.81;59.01;101739.19;5080832;27;45439;-51
2021/07/18 03:56:23;;;;;;;;;11.50;10.75;;;;;21.78;58.71;101738.50;5080827;27;47421;-49
2021/07/18 03:58:50;;;;;;;;;8.25;8.25;;;;;21.77;58.60;101737.63;5080642;27;45841;-50
2021/07/18 04:01:15;;;;;;;;;9.25;8.50;;;;;21.76;59.02;101745.81;5074022;27;45362;-49
2021/07/18 04:03:46;;;;;;;;;8.50;7.00;;;;;21.72;59.29;101736.97;5080217;27;45512;-49
2021/07/18 04:06:11;;;;;;;;;10.50;9.25;;;;;21.71;59.01;101735.22;5080961;27;46768;-53
2021/07/18 04:08:37;;;;;;;;;7.75;7.50;;;;;21.70;58.67;101728.06;5061772;27;45334;-49
2021/07/18 04:11:02;;;;;;;;;8.75;8.75;;;;;21.69;58.72;101735.31;5080922;27;45361;-49
2021/07/18 04:13:28;;;;;;;;;7.00;7.00;;;;;21.68;58.66;101732.69;5080919;27;45397;-50
2021/07/18 04:15:53;;;;;;;;;9.75;9.50;;;;;21.67;58.95;101739.03;5080689;27;45467;-48
2021/07/18 04:18:19;;;;;;;;;8.00;8.00;;;;;21.68;59.03;101743.50;5080982;27;45579;-52
2021/07/18 04:20:44;;;;;;;;;8.25;8.25;;;;;21.66;59.06;101742.69;5062602;28;45389;-48
2021/07/18 04:23:10;;;;;;;;;9.00;9.00;;;;;21.66;58.88;101745.41;5061592;28;45511;-50
2021/07/18 04:25:36;;;;;;;;;12.25;10.75;;;;;21.65;58.77;101746.34;5080613;28;46143;-50
2021/07/18 04:28:02;;;;;;;;;9.00;9.00;;;;;21.63;59.08;101749.16;5080866;27;45552;-49
2021/07/18 04:30:27;;;;;;;;;9.00;7.25;;;;;21.63;59.48;101742.88;5077033;27;45303;-47
2021/07/18 04:32:53;;;;;;;;;7.67;6.33;;;;;21.65;59.35;101752.63;5080540;27;45588;-49
2021/07/18 04:35:19;;;;;;;;;7.00;7.00;;;;;21.64;59.46;101752.72;5080778;27;48056;-51
2021/07/18 04:37:45;;;;;;;;;9.67;8.67;;;;;21.63;59.30;101753.69;5061848;28;45444;-47
2021/07/18 04:40:11;;;;;;;;;7.67;7.67;;;;;21.64;59.23;101755.41;5080396;27;45326;-50
2021/07/18 04:42:38;;;;;;;;;8.00;8.00;;;;;21.62;59.33;101757.34;5062632;27;45429;-51
2021/07/18 04:45:04;;;;;;;;;10.00;9.00;;;;;21.58;59.57;101755.72;5077814;27;47655;-51
2021/07/18 04:47:29;;;;;;;;;9.25;9.25;;;;;21.58;59.59;101755.72;5077088;27;45433;-49
2021/07/18 04:49:55;;;;;;;;;10.00;9.00;;;;;21.58;59.20;101758.41;5080191;27;45518;-47
2021/07/18 04:52:20;;;;;;;;;8.33;8.00;;;;;21.58;59.12;101756.59;5080317;27;45529;-52
2021/07/18 04:54:46;;;;;;;;;8.67;8.00;;;;;21.58;58.99;101751.19;5079474;28;47305;-48
2021/07/18 04:57:11;;;;;;;;;8.50;8.50;;;;;21.58;59.52;101755.72;5061884;28;45288;-51
2021/07/18 04:59:37;;;;;;;;;7.67;7.67;;;;;21.57;59.22;101759.38;5080280;27;45294;-52
2021/07/18 05:02:03;;;;;;;;;13.00;10.00;;;;;21.59;59.27;101763.75;5056117;28;45452;-50
2021/07/18 05:04:29;;;;;;;;;8.67;8.00;;;;;21.59;59.20;101768.25;5039663;28;48236;-48
2021/07/18 05:06:54;;;;;;;;;7.67;7.67;;;;;21.57;59.20;101765.66;5058008;28;45389;-48
2021/07/18 05:09:20;;;;;;;;;9.33;9.33;;;;;21.58;59.00;101775.50;5041388;28;45411;-49
2021/07/18 05:11:45;;;;;;;;;9.00;8.67;;;;;21.57;58.98;101783.69;5059747;28;45585;-51
2021/07/18 05:14:10;;;;;;;;;9.67;8.33;;;;;21.56;59.08;101779.22;5059616;28;47490;-49
2021/07/18 05:16:36;;;;;;;;;8.00;8.00;;;;;21.55;59.23;101777.50;5059630;28;45513;-47
2021/07/18 05:19:02;;;;;;;;;6.67;6.67;;;;;21.55;59.40;101782.91;5059544;28;45382;-52
2021/07/18 05:21:27;;;;;;;;;7.67;7.33;;;;;21.55;59.30;101782.91;5058454;28;45398;-46
2021/07/18 05:23:53;;;;;;;;;8.33;8.33;;;;;21.53;59.25;101777.56;5059052;28;45381;-49
2021/07/18 05:26:19;;;;;;;;;6.33;6.33;;;;;21.52;59.15;101774.94;5041160;28;45306;-47
2021/07/18 05:28:44;;;;;;;;;7.33;7.33;;;;;21.52;59.32;101769.56;5059247;28;45301;-48
2021/07/18 05:31:10;;;;;;;;;10.25;9.75;;;;;21.52;58.81;101772.25;5060201;28;45621;-50
2021/07/18 05:33:35;;;;;;;;;7.00;7.00;;;;;21.52;59.31;101772.25;5079515;28;48082;-48
2021/07/18 05:36:01;;;;;;;;;7.00;7.00;;;;;21.50;58.94;101780.44;5060814;28;45424;-51
2021/07/18 05:38:26;;;;;;;;;7.50;7.25;;;;;21.51;58.92;101771.38;5068270;28;45338;-52
2021/07/18 05:40:52;;;;;;;;;7.67;7.67;;;;;21.51;59.29;101771.38;5058977;28;45299;-50
2021/07/18 05:43:17;;;;;;;;;8.00;7.33;;;;;21.50;59.48;101772.34;5058802;28;47110;-47
2021/07/18 05:45:43;;;;;;;;;8.67;8.67;;;;;21.51;59.19;101775.91;5066949;28;45448;-51
2021/07/18 05:48:08;;;;;;;;;7.33;7.00;;;;;21.49;58.89;101769.72;5072771;28;45294;-50
2021/07/18 05:50:34;;;;;;;;;7.33;7.33;;;;;21.49;59.02;101775.13;5079380;27;45751;-50
2021/07/18 05:52:59;;;;;;;;;8.00;7.00;;;;;21.45;59.34;101768.97;5078738;27;45465;-47
2021/07/18 05:55:24;;;;;;;;;8.33;7.33;;;;;21.47;59.36;101779.69;5060681;28;45718;-47
2021/07/18 05:57:51;;;;;;;;;11.33;9.67;;;;;21.47;59.54;101782.41;5061170;28;45538;-51
2021/07/18 06:00:17;;;;;;;;;7.67;7.67;;;;;21.45;59.63;101779.78;5079195;27;45604;-51
2021/07/18 06:02:43;;;;;;;;;9.00;9.00;;;;;21.47;59.35;101783.31;5074402;27;47338;-49
2021/07/18 06:05:09;;;;;;;;;8.67;8.67;;;;;21.48;59.69;101784.16;5078982;27;45394;-51
2021/07/18 06:07:35;;;;;;;;;9.00;9.00;;;;;21.49;59.23;101786.78;5078825;27;45617;-48
2021/07/18 06:10:06;;;;;;;;;7.00;7.00;;;;;21.51;59.81;101784.88;5078947;28;45507;-48
2021/07/18 06:12:31;;;;;;;;;7.75;7.25;;;;;21.55;59.07;101789.16;5078575;27;48149;-51
2021/07/18 06:14:58;;;;;;;;;7.25;7.25;;;;;21.57;59.03;101779.16;5078638;27;45810;-49
2021/07/18 06:17:24;;;;;;;;;9.00;8.00;;;;;21.61;59.27;101782.59;5060809;28;45462;-47
2021/07/18 06:19:49;;;;;;;;;7.50;7.50;;;;;21.62;59.69;101782.53;5079013;27;45528;-47
2021/07/18 06:22:15;;;;;;;;;5.25;5.25;;;;;21.64;59.60;101779.72;5078027;27;46979;-48
2021/07/18 06:24:40;;;;;;;;;8.67;7.33;;;;;21.66;59.44;101781.41;5057764;27;45847;-49
2021/07/18 06:27:07;;;;;;;;;7.00;7.00;;;;;21.66;59.49;101780.53;5078731;27;45448;-49
2021/07/18 06:29:33;;;;;;;;;10.00;9.00;;;;;21.66;59.57;101778.69;5078770;27;45595;-48
2021/07/18 06:31:58;;;;;;;;;6.75;6.75;;;;;21.70;59.15;101784.81;5060263;28;47231;-48
2021/07/18 06:34:24;;;;;;;;;9.00;7.00;;;;;21.72;59.39;101783.81;5060576;28;45253;-48
2021/07/18 06:36:49;;;;;;;;;8.00;7.67;;;;;21.77;59.64;101788.09;5078894;28;45381;-47
2021/07/18 06:39:15;;;;;;;;;12.00;10.00;;;;;21.79;59.25;101783.47;5076229;27;45809;-49
2021/07/18 06:41:41;;;;;;;;;6.75;6.75;;;;;21.80;59.32;101788.78;5078617;28;46341;-54
2021/07/18 06:44:07;;;;;;;;;7.00;7.00;;;;;21.82;59.33;101786.88;5088490;27;45785;-48
2021/07/18 06:46:32;;;;;;;;;7.75;6.75;;;;;21.84;59.12;101789.50;5075588;28;45329;-52
2021/07/18 06:48:58;;;;;;;;;6.25;6.25;;;;;21.87;59.50;101790.25;5078529;27;45233;-51
2021/07/18 06:51:24;;;;;;;;;7.67;7.67;;;;;21.90;59.32;101792.78;5063863;28;47342;-47
2021/07/18 06:53:50;;;;;;;;;6.00;6.00;;;;;21.91;58.98;101780.13;5061727;27;45374;-51
2021/07/18 06:56:15;;;;;;;;;7.50;7.50;;;;;21.94;58.90;101782.66;5043728;28;45490;-49
2021/07/18 06:58:41;;;;;;;;;6.00;6.00;;;;;21.97;58.89;101790.59;5080431;27;45598;-48
2021/07/18 07:01:06;;;;;;;;;6.25;6.25;;;;;22.01;58.96;101789.50;5076041;27;46234;-48
2021/07/18 07:03:32;;;;;;;;;7.00;7.00;;;;;22.03;59.46;101783.06;5080526;27;45387;-48
2021/07/18 07:05:57;;;;;;;;;7.00;7.00;;;;;22.06;59.58;101779.34;5081902;27;45711;-48
2021/07/18 07:08:23;;;;;;;;;8.00;8.00;;;;;22.08;59.01;101782.84;5043412;28;45410;-50
2021/07/18 07:10:48;;;;;;;;;6.75;6.75;;;;;22.13;58.82;101788.03;5081411;27;47234;-53
2021/07/18 07:13:15;;;;;;;;;8.50;7.75;;;;;22.16;59.38;101785.16;5081431;27;45729;-50
2021/07/18 07:15:41;;;;;;;;;8.00;6.50;;;;;22.19;59.41;101785.00;5081774;27;45374;-51
2021/07/18 07:18:07;;;;;;;;;5.33;5.33;;;;;22.23;59.24;101778.44;5081397;27;45473;-54
2021/07/18 07:20:33;;;;;;;;;7.00;7.00;;;;;22.25;59.36;101784.69;5081331;27;47773;-53
2021/07/18 07:22:59;;;;;;;;;4.67;4.67;;;;;22.27;59.02;101783.63;5062629;27;45369;-53
2021/07/18 07:25:25;;;;;;;;;6.33;6.33;;;;;22.31;58.79;101779.78;5081668;27;45439;-52
2021/07/18 07:27:51;;;;;;;;;8.67;8.67;;;;;22.35;58.86;101780.50;5081517;27;45600;-50
2021/07/18 07:30:17;;;;;;;;;8.00;6.25;;;;;22.39;58.55;101778.53;5063241;28;47638;-49
2021/07/18 07:32:43;;;;;;;;;4.50;4.50;;;;;22.43;58.72;101785.50;5045835;27;45744;-51
2021/07/18 07:35:12;;;;;;;;;4.67;4.67;;;;;22.45;58.84;101784.47;5081638;27;45530;-52
2021/07/18 07:37:40;;;;;;;;;5.50;4.75;;;;;22.48;58.68;101786.97;5044495;27;45339;-50
2021/07/18 07:40:07;;;;;;;;;6.00;6.00;;;;;22.50;58.59;101782.41;5063253;28;46280;-51
2021/07/18 07:42:33;;;;;;;;;5.33;5.33;;;;;22.52;58.39;101777.78;5083156;27;45799;-51
2021/07/18 07:44:59;;;;;;;;;5.33;5.33;;;;;22.57;58.56;101785.63;5096396;27;45452;-50
2021/07/18 07:47:24;;;;;;;;;4.67;4.00;;;;;22.58;58.61;101785.53;5078534;27;45725;-47
2021/07/18 07:49:50;;;;;;;;;5.33;5.33;;;;;22.62;58.18;101783.56;5063166;28;47801;-50
2021/07/18 07:52:16;;;;;;;;;7.00;7.00;;;;;22.65;58.58;101775.25;5062613;27;45629;-49
2021/07/18 07:54:42;;;;;;;;;5.00;5.00;;;;;22.71;58.31;101780.31;5080893;27;45300;-50
2021/07/18 07:57:08;;;;;;;;;3.33;3.33;;;;;22.75;58.39;101783.75;5081296;27;45669;-50
2021/07/18 07:59:33;;;;;;;;;4.67;4.67;;;;;22.79;58.27;101788.03;5079899;27;48178;-54
2021/07/18 08:02:01;;;;;;;;;0.00;0.00;;;;;22.82;57.76;101790.53;5073256;27;45347;-49
2021/07/18 08:04:27;;;;;;;;;4.33;4.33;;;;;22.84;57.46;101792.25;5062996;28;45531;-47
2021/07/18 08:06:53;;;;;;;;;6.00;5.33;;;;;22.88;57.87;101782.13;5080733;27;45388;-48
2021/07/18 08:09:18;;;;;;;;;5.67;5.67;;;;;22.92;57.28;101785.53;5062107;28;48001;-51
2021/07/18 08:11:44;;;;;;;;;5.67;5.67;;;;;22.94;57.22;101779.06;5080899;27;45437;-48
2021/07/18 08:14:10;;;;;;;;;4.67;4.00;;;;;22.96;57.32;101785.25;5081315;27;45611;-50
2021/07/18 08:16:36;;;;;;;;;5.67;5.67;;;;;22.99;57.29;101773.38;5080721;27;45432;-49
2021/07/18 08:19:03;;;;;;;;;6.00;6.00;;;;;23.03;57.47;101777.69;5080653;27;48165;-51
2021/07/18 08:21:28;;;;;;;;;3.67;3.67;;;;;23.06;57.09;101772.97;5080225;27;45354;-48
2021/07/18 08:23:54;;;;;;;;;4.00;4.00;;;;;23.11;56.99;101762.72;5080516;27;45508;-47
2021/07/18 08:26:22;;;;;;;;;4.67;4.67;;;;;23.14;56.67;101770.69;5080656;27;45299;-49
2021/07/18 08:28:48;;;;;;;;;1.67;1.67;;;;;23.17;56.49;101759.69;5062216;27;47078;-51
2021/07/18 08:31:14;;;;;;;;;2.67;2.00;;;;;23.18;56.38;101761.41;5080657;27;45302;-50
2021/07/18 08:33:40;;;;;;;;;4.00;4.00;;;;;23.22;56.10;101759.41;5080666;27;45459;-46
2021/07/18 08:36:06;;;;;;;;;3.25;1.75;;;;;23.25;56.03;101756.53;5060317;28;45351;-51
2021/07/18 08:38:32;;;;;;;;;2.67;2.67;;;;;23.28;55.58;101758.19;5078254;27;48361;-49
2021/07/18 08:40:59;;;;;;;;;3.25;3.25;;;;;23.32;55.80;101759.75;5079795;27;45453;-51
2021/07/18 08:43:25;;;;;;;;;3.00;3.00;;;;;23.36;55.77;101764.00;5089430;27;45595;-50
2021/07/18 08:45:51;;;;;;;;;4.00;4.00;;;;;23.39;55.34;101755.72;5088522;27;45523;-53
2021/07/18 08:48:17;;;;;;;;;2.67;2.67;;;;;23.41;55.35;101754.66;5078701;27;47654;-52
2021/07/18 08:50:42;;;;;;;;;3.33;2.67;;;;;23.45;55.17;101749.94;5079805;27;45337;-52
2021/07/18 08:53:08;;;;;;;;;2.67;2.67;;;;;23.48;55.17;101744.31;5062675;28;45477;-51
2021/07/18 08:55:34;;;;;;;;;5.00;3.00;;;;;23.53;54.73;101753.06;5080268;27;45715;-51
2021/07/18 08:58:00;;;;;;;;;3.00;3.00;;;;;23.54;54.60;101743.97;5080299;27;47142;-51
2021/07/18 09:00:25;;;;;;;;;4.00;2.67;;;;;23.58;54.48;101750.97;5079786;27;45449;-49
2021/07/18 09:02:52;;;;;;;;;3.67;3.33;;;;;23.61;54.24;101745.38;5071897;27;45688;-49
2021/07/18 09:05:18;;;;;;;;;3.67;3.67;;;;;23.65;54.40;101741.53;5080023;27;45232;-54
2021/07/18 09:07:48;;;;;;;;;3.00;3.00;;;;;23.68;53.98;101743.19;5061478;28;46891;-52
2021/07/18 09:10:22;;;;;;;;;4.33;3.33;;;;;23.71;54.04;101749.28;5074920;27;45921;-47
2021/07/18 09:13:04;;;;;;;;;3.00;3.00;;;;;23.76;54.15;101749.91;5079686;27;45311;-50
2021/07/18 09:15:47;;;;;;;;;3.33;3.00;;;;;23.80;53.84;101742.44;5079734;27;45506;-49
2021/07/18 09:18:16;;;;;;;;;3.67;2.00;;;;;23.85;53.53;101747.56;5079346;27;45412;-49
2021/07/18 09:20:46;;;;;;;;;2.67;2.33;;;;;23.89;53.77;101743.72;5079294;28;45452;-52
2021/07/18 09:23:16;;;;;;;;;3.33;3.33;;;;;23.93;53.49;101743.44;5075811;27;45412;-49
2021/07/18 09:25:42;;;;;;;;;3.67;3.67;;;;;23.99;53.20;101736.75;5079752;27;45557;-49
2021/07/18 09:28:22;;;;;;;;;3.67;3.00;;;;;24.04;52.72;101740.06;5057653;28;48403;-50
2021/07/18 09:30:50;;;;;;;;;1.67;1.67;;;;;24.07;52.38;101737.16;5075227;27;45637;-51
2021/07/18 09:33:29;;;;;;;;;1.67;1.67;;;;;24.12;52.54;101736.84;5061246;28;45497;-50
2021/07/18 09:36:11;;;;;;;;;4.33;4.33;;;;;24.16;52.65;101731.16;5060605;27;45393;-47
2021/07/18 09:38:37;;;;;;;;;4.00;4.00;;;;;24.20;52.75;101743.56;5078494;27;48203;-49
2021/07/18 09:41:03;;;;;;;;;2.00;2.00;;;;;24.24;52.18;101730.66;5078628;27;45885;-51
2021/07/18 09:43:29;;;;;;;;;2.00;2.00;;;;;24.28;52.00;101737.66;5089202;27;45657;-48
2021/07/18 09:46:11;;;;;;;;;2.67;2.67;;;;;24.30;52.00;101728.50;5090072;27;45361;-51
2021/07/18 09:48:44;;;;;;;;;3.00;3.00;;;;;24.35;51.72;101733.63;5061414;27;45559;-49
2021/07/18 09:51:14;;;;;;;;;3.00;3.00;;;;;24.41;51.70;101735.94;5079390;27;45448;-50
2021/07/18 09:53:41;;;;;;;;;2.00;2.00;;;;;24.46;51.67;101736.53;5079033;27;45426;-52
2021/07/18 09:56:16;;;;;;;;;2.00;2.00;;;;;24.51;51.47;101734.38;5079349;28;45320;-48
2021/07/18 09:58:55;;;;;;;;;2.67;2.67;;;;;24.56;51.27;101726.81;5078839;27;45418;-49
2021/07/18 10:01:22;;;;;;;;;2.33;2.33;;;;;24.60;51.00;101731.06;5071140;27;45322;-52
2021/07/18 10:03:50;;;;;;;;;3.00;3.00;;;;;24.64;51.10;101735.31;5083129;27;45284;-51
2021/07/18 10:06:19;;;;;;;;;3.00;3.00;;;;;24.68;50.81;101724.28;5063761;27;45436;-48
2021/07/18 10:08:48;;;;;;;;;4.33;3.00;;;;;24.72;50.67;101728.53;5078720;27;45310;-50
2021/07/18 10:11:17;;;;;;;;;2.00;2.00;;;;;24.75;49.90;101725.63;5058785;28;45765;-51
2021/07/18 10:13:46;;;;;;;;;1.67;1.67;;;;;24.78;49.99;101730.88;5079010;28;45600;-50
2021/07/18 10:16:12;;;;;;;;;3.00;2.33;;;;;24.83;49.81;101720.56;5078844;27;45563;-52
2021/07/18 10:18:40;;;;;;;;;2.00;2.00;;;;;24.85;49.75;101727.63;5056821;28;47348;-51
2021/07/18 10:21:07;;;;;;;;;2.00;2.00;;;;;24.88;49.26;101732.88;5074176;27;45858;-51
2021/07/18 10:23:38;;;;;;;;;3.00;3.00;;;;;24.92;49.27;101717.25;5079186;27;45369;-50
2021/07/18 10:26:06;;;;;;;;;3.67;2.67;;;;;24.95;48.98;101717.91;5079063;28;45414;-50
2021/07/18 10:28:32;;;;;;;;;4.00;3.00;;;;;25.00;49.04;101722.16;5060486;28;47330;-50
2021/07/18 10:31:12;;;;;;;;;3.00;3.00;;;;;25.05;49.05;101706.50;5078242;27;45632;-51
2021/07/18 10:33:39;;;;;;;;;4.00;4.00;;;;;25.08;48.40;101718.00;5078827;27;45323;-51
2021/07/18 10:36:05;;;;;;;;;3.67;3.67;;;;;25.12;48.66;101722.25;5078809;27;45618;-51
2021/07/18 10:38:34;;;;;;;;;5.00;5.00;;;;;25.16;47.85;101725.66;5076529;27;47284;-53
2021/07/18 10:41:00;;;;;;;;;4.00;4.00;;;;;25.20;48.24;101717.19;5078393;27;45285;-48
2021/07/18 10:43:35;;;;;;;;;6.00;6.00;;;;;25.25;48.44;101714.16;5088111;27;45314;-51
2021/07/18 10:46:02;;;;;;;;;4.33;3.67;;;;;25.30;47.35;101705.72;5086812;27;45526;-52
2021/07/18 10:48:48;;;;;;;;;4.67;3.33;;;;;25.35;46.98;101706.25;5075798;28;48280;-50
2021/07/18 10:51:18;;;;;;;;;5.00;5.00;;;;;25.37;47.10;101697.03;5078333;27;45708;-50
2021/07/18 10:53:45;;;;;;;;;4.67;4.67;;;;;25.41;47.61;101704.00;5078030;28;45474;-52
2021/07/18 10:56:17;;;;;;;;;4.67;4.67;;;;;25.45;47.13;101699.22;5061684;28;45453;-49
2021/07/18 10:58:45;;;;;;;;;6.00;6.00;;;;;25.49;47.45;101695.31;5078477;27;45497;-50
2021/07/18 11:01:11;;;;;;;;;4.67;4.67;;;;;25.52;47.29;101695.97;5072161;27;45440;-54
2021/07/18 11:03:43;;;;;;;;;5.67;5.67;;;;;25.57;46.90;101694.78;5078765;27;45329;-52
2021/07/18 11:06:22;;;;;;;;;6.33;5.00;;;;;25.61;46.70;101697.19;5079185;27;45769;-50
2021/07/18 11:09:05;;;;;;;;;5.00;4.67;;;;;25.64;46.65;101691.53;5078245;27;48142;-52
2021/07/18 11:11:49;;;;;;;;;2.67;2.67;;;;;25.67;46.46;101694.06;5066667;28;45573;-51
2021/07/18 11:14:27;;;;;;;;;4.67;4.67;;;;;25.70;46.78;101693.00;5055349;28;45653;-49
2021/07/18 11:16:54;;;;;;;;;5.00;5.00;;;;;25.73;46.67;101690.94;5061633;28;45342;-53
2021/07/18 11:19:37;;;;;;;;;5.00;5.00;;;;;25.79;46.31;101684.16;5078597;27;46891;-50
2021/07/18 11:22:04;;;;;;;;;4.00;4.00;;;;;25.83;46.32;101684.84;5078997;27;45390;-52